Time;durP1;ratioP1;P1;durP2;ratioP2;P2;SDS_P1;SDS_P2;PMS_P1;PMS_P2;Temp;Humidity;BMP_temperature;BMP_pressure;BME280_temperature;BME280_humidity;BME280_pressure;Samples;Min_cycle;Max_cycle;Signal;HPM_P1;HPM_P2
2023/04/25 00:00:53;;;;;;;2.90;0.35;;;;;;;17.48;43.97;101542.56;5047314;28;20041;-77
2023/04/25 00:03:24;;;;;;;0.15;0.00;;;;;;;17.47;44.37;101551.25;5056172;28;20042;-84
2023/04/25 00:05:53;;;;;;;0.38;0.20;;;;;;;17.46;44.15;101550.38;5048385;28;20044;-81
2023/04/25 00:08:22;;;;;;;0.70;0.10;;;;;;;17.42;42.36;101547.69;5044398;28;20053;-83
2023/04/25 00:10:52;;;;;;;0.30;0.20;;;;;;;17.38;42.40;101541.53;5044924;28;20045;-82
2023/04/25 00:13:21;;;;;;;0.20;0.20;;;;;;;17.35;41.27;101534.53;5039514;28;20499;-78
2023/04/25 00:15:50;;;;;;;0.95;0.13;;;;;;;17.35;43.01;101544.09;5047113;28;20037;-81
2023/04/25 00:18:19;;;;;;;0.13;0.10;;;;;;;17.42;42.38;101556.41;5042695;28;20088;-83
2023/04/25 00:20:47;;;;;;;0.32;0.17;;;;;;;17.42;41.88;101555.53;5050925;28;20068;-83
2023/04/25 00:23:18;;;;;;;0.00;0.00;;;;;;;17.43;41.21;101554.66;5053011;28;20052;-83
2023/04/25 00:25:47;;;;;;;0.93;0.30;;;;;;;17.44;40.55;101545.97;5037817;28;20235;-80
2023/04/25 00:28:18;;;;;;;0.68;0.10;;;;;;;17.45;40.93;101550.34;5047091;28;20073;-80
2023/04/25 00:30:47;;;;;;;0.00;0.00;;;;;;;17.45;41.15;101552.97;5045819;28;20108;-81
2023/04/25 00:33:15;;;;;;;0.38;0.20;;;;;;;17.47;41.12;101548.63;5040127;28;20052;-80
2023/04/25 00:35:44;;;;;;;0.32;0.20;;;;;;;17.49;41.93;101552.16;5044590;28;20045;-82
2023/04/25 00:38:13;;;;;;;0.63;0.20;;;;;;;17.51;43.00;101553.06;5035476;28;20057;-79
2023/04/25 00:40:43;;;;;;;0.38;0.10;;;;;;;17.62;42.43;101553.22;5050449;28;20143;-80
2023/04/25 00:43:12;;;;;;;1.42;0.20;;;;;;;17.69;40.85;101542.81;5051019;28;20045;-80
2023/04/25 00:45:43;;;;;;;0.25;0.10;;;;;;;17.70;40.83;101543.69;5038872;28;20136;-81
2023/04/25 00:48:11;;;;;;;0.28;0.20;;;;;;;17.65;42.91;101551.50;5039953;28;20403;-80
2023/04/25 00:50:40;;;;;;;0.70;0.30;;;;;;;17.64;42.96;101554.09;5046089;28;20049;-81
2023/04/25 00:53:09;;;;;;;0.60;0.20;;;;;;;17.58;40.77;101561.00;5042876;28;20068;-81
2023/04/25 00:55:38;;;;;;;0.40;0.20;;;;;;;17.56;41.65;101561.84;5040133;28;20047;-82
2023/04/25 00:58:06;;;;;;;0.75;0.30;;;;;;;17.46;41.36;101549.50;5045575;28;20051;-83
2023/04/25 01:00:35;;;;;;;0.20;0.20;;;;;;;17.38;40.82;101542.44;5046227;28;20052;-82
2023/04/25 01:03:06;;;;;;;0.10;0.10;;;;;;;17.40;41.15;101558.13;5046760;28;20124;-83
2023/04/25 01:05:56;;;;;;;0.47;0.10;;;;;;;17.30;41.19;101554.50;5037690;28;20084;-83
2023/04/25 01:08:26;;;;;;;0.30;0.10;;;;;;;17.23;42.56;101570.97;5045217;28;20553;-84
2023/04/25 01:10:55;;;;;;;0.30;0.13;;;;;;;17.15;42.64;101573.44;5054683;28;20041;-82
2023/04/25 01:13:23;;;;;;;0.60;0.10;;;;;;;17.10;42.13;101577.75;5055589;28;20056;-84
2023/04/25 01:15:52;;;;;;;0.47;0.20;;;;;;;17.05;42.57;101568.94;5046488;28;20060;-85
2023/04/25 01:18:23;;;;;;;0.70;0.28;;;;;;;17.03;43.76;101561.94;5044489;28;20049;-80
2023/04/25 01:20:53;;;;;;;0.10;0.10;;;;;;;17.00;42.89;101564.50;5046737;28;20041;-82
2023/04/25 01:23:24;;;;;;;0.08;0.00;;;;;;;16.91;41.92;101558.28;5055663;28;20053;-81
2023/04/25 01:25:53;;;;;;;0.32;0.20;;;;;;;16.85;42.00;101571.22;5048666;28;20133;-83
2023/04/25 01:28:22;;;;;;;1.77;0.43;;;;;;;16.79;42.63;101580.66;5041473;28;20046;-81
2023/04/25 01:30:51;;;;;;;0.32;0.10;;;;;;;16.71;44.58;101578.81;5053007;28;20080;-80
2023/04/25 01:33:22;;;;;;;0.77;0.17;;;;;;;16.66;43.19;101574.38;5039481;28;20053;-76
2023/04/25 01:35:51;;;;;;;1.02;0.10;;;;;;;16.62;43.58;101585.59;5057610;28;20048;-80
2023/04/25 01:38:20;;;;;;;0.32;0.20;;;;;;;16.58;44.13;101587.28;5060759;28;20036;-80
2023/04/25 01:40:52;;;;;;;0.28;0.10;;;;;;;16.54;43.86;101586.34;5056353;28;20129;-80
2023/04/25 01:43:21;;;;;;;0.40;0.40;;;;;;;16.52;43.79;101593.28;5050275;28;20156;-84
2023/04/25 01:45:51;;;;;;;0.43;0.15;;;;;;;16.48;44.61;101601.91;5054546;28;20451;-82
2023/04/25 01:48:20;;;;;;;0.10;0.10;;;;;;;16.46;45.01;101601.00;5050435;28;20136;-85
2023/04/25 01:50:48;;;;;;;1.38;0.30;;;;;;;16.44;45.08;101601.81;5047917;28;20076;-78
2023/04/25 01:53:17;;;;;;;0.80;0.20;;;;;;;16.40;45.46;101598.28;5045530;28;20056;-78
2023/04/25 01:55:46;;;;;;;1.75;0.32;;;;;;;16.39;45.77;101593.91;5039291;28;20045;-79
2023/04/25 01:58:16;;;;;;;1.33;0.20;;;;;;;16.37;44.87;101610.41;5040047;28;20136;-81
2023/04/25 02:00:45;;;;;;;0.32;0.17;;;;;;;16.33;45.32;101593.75;5040667;28;20093;-83
2023/04/25 02:03:13;;;;;;;0.32;0.05;;;;;;;16.30;44.19;101596.34;5048001;28;20068;-83
2023/04/25 02:05:42;;;;;;;2.70;0.20;;;;;;;16.25;43.88;101597.97;5059664;28;20076;-82
2023/04/25 02:08:15;;;;;;;0.10;0.00;;;;;;;16.20;43.79;101605.72;5052170;28;20043;-84
2023/04/25 02:10:44;;;;;;;0.10;0.10;;;;;;;16.13;43.90;101604.72;5047184;28;20049;-80
2023/04/25 02:13:13;;;;;;;0.32;0.22;;;;;;;16.08;43.74;101611.59;5048321;28;20071;-80
2023/04/25 02:15:43;;;;;;;0.47;0.10;;;;;;;16.01;45.22;101609.69;5039536;28;20056;-81
2023/04/25 02:18:12;;;;;;;0.20;0.20;;;;;;;15.97;45.52;101605.25;5039841;28;20128;-79
2023/04/25 02:20:41;;;;;;;0.13;0.10;;;;;;;15.93;44.90;101611.25;5045831;28;20060;-77
2023/04/25 02:23:09;;;;;;;0.00;0.00;;;;;;;15.88;46.13;101608.53;5046887;28;20042;-79
2023/04/25 02:25:38;;;;;;;1.38;0.10;;;;;;;15.83;46.39;101612.78;5044374;28;20068;-77
2023/04/25 02:28:07;;;;;;;1.50;0.28;;;;;;;15.80;45.78;101617.06;5043814;28;20140;-81
2023/04/25 02:30:36;;;;;;;0.82;0.10;;;;;;;15.76;45.79;101620.44;5042216;28;20056;-78
2023/04/25 02:33:06;;;;;;;0.13;0.10;;;;;;;15.74;45.74;101614.34;5039617;28;20576;-79
2023/04/25 02:35:35;;;;;;;0.45;0.20;;;;;;;15.70;46.36;101614.25;5034578;28;20056;-79
2023/04/25 02:38:04;;;;;;;0.00;0.00;;;;;;;15.67;45.39;101616.75;5044447;28;20133;-83
2023/04/25 02:40:32;;;;;;;0.00;0.00;;;;;;;15.62;45.55;101613.19;5045924;28;20049;-79
2023/04/25 02:43:01;;;;;;;0.22;0.20;;;;;;;15.56;46.42;101620.84;5047888;28;20045;-82
2023/04/25 02:45:30;;;;;;;0.30;0.20;;;;;;;15.50;46.58;101620.69;5043897;28;20136;-82
2023/04/25 02:47:58;;;;;;;1.45;0.15;;;;;;;15.44;47.13;101616.25;5048210;28;20041;-80
2023/04/25 02:50:29;;;;;;;1.08;0.40;;;;;;;15.38;47.65;101623.03;5038756;28;20054;-80
2023/04/25 02:52:57;;;;;;;0.52;0.22;;;;;;;15.33;46.73;101620.31;5052020;28;20045;-82
2023/04/25 02:55:26;;;;;;;0.20;0.20;;;;;;;15.29;47.12;101626.28;5039843;28;20056;-81
2023/04/25 02:57:55;;;;;;;0.57;0.30;;;;;;;15.25;47.13;101627.06;5038681;28;20049;-78
2023/04/25 03:00:24;;;;;;;1.90;0.40;;;;;;;15.20;47.80;101626.94;5041946;28;20049;-80
2023/04/25 03:02:53;;;;;;;0.85;0.57;;;;;;;15.17;48.15;101634.72;5051167;28;20059;-78
2023/04/25 03:05:21;;;;;;;0.60;0.30;;;;;;;15.13;48.17;101630.25;5046033;28;20052;-79
2023/04/25 03:07:52;;;;;;;0.80;0.40;;;;;;;15.11;49.45;101628.44;5036191;28;20052;-81
2023/04/25 03:10:20;;;;;;;2.13;0.43;;;;;;;15.06;49.09;101628.34;5049902;28;20060;-80
2023/04/25 03:12:49;;;;;;;0.70;0.50;;;;;;;15.01;49.61;101629.97;5044509;28;20048;-84
2023/04/25 03:15:18;;;;;;;1.25;0.30;;;;;;;14.97;49.63;101633.31;5047378;28;20041;-82
2023/04/25 03:17:47;;;;;;;3.30;0.60;;;;;;;14.93;50.35;101636.69;5050508;28;20099;-83
2023/04/25 03:20:15;;;;;;;1.85;0.32;;;;;;;14.91;50.13;101643.56;5050916;28;20510;-82
2023/04/25 03:22:44;;;;;;;0.30;0.20;;;;;;;14.86;50.26;101657.34;5039928;28;20076;-83
2023/04/25 03:25:14;;;;;;;0.40;0.20;;;;;;;14.85;51.34;101652.13;5049239;28;20124;-85
2023/04/25 03:27:43;;;;;;;0.95;0.25;;;;;;;14.82;52.23;101658.16;5040387;28;20051;-82
2023/04/25 03:30:12;;;;;;;0.20;0.20;;;;;;;14.79;51.39;101662.38;5047894;28;20213;-78
2023/04/25 03:32:40;;;;;;;0.10;0.10;;;;;;;14.76;51.26;101671.00;5048191;28;20059;-81
2023/04/25 03:35:09;;;;;;;0.70;0.22;;;;;;;14.73;50.69;101665.72;5045139;28;20483;-78
2023/04/25 03:37:40;;;;;;;0.20;0.00;;;;;;;14.70;51.05;101676.03;5040780;28;20045;-78
2023/04/25 03:40:09;;;;;;;0.13;0.10;;;;;;;14.66;51.31;101682.03;5048468;28;20103;-82
2023/04/25 03:42:40;;;;;;;3.50;0.32;;;;;;;14.62;51.93;101682.78;5041509;28;20041;-80
2023/04/25 03:45:10;;;;;;;0.40;0.28;;;;;;;14.61;52.06;101696.63;5049325;28;20114;-81
2023/04/25 03:47:38;;;;;;;0.40;0.20;;;;;;;14.57;52.34;101695.66;5041787;28;20049;-80
2023/04/25 03:50:08;;;;;;;1.02;0.20;;;;;;;14.53;51.62;101695.50;5040212;28;20069;-81
2023/04/25 03:52:37;;;;;;;0.50;0.30;;;;;;;14.52;52.04;101702.41;5042013;28;20045;-80
2023/04/25 03:55:06;;;;;;;3.40;0.55;;;;;;;14.50;52.06;101700.59;5032112;28;20389;-81
2023/04/25 03:57:35;;;;;;;0.82;0.50;;;;;;;14.42;53.14;101706.47;5043534;28;20619;-79
2023/04/25 04:00:06;;;;;;;1.65;0.20;;;;;;;14.36;54.94;101711.53;5036933;28;20049;-81
2023/04/25 04:02:36;;;;;;;0.43;0.20;;;;;;;14.30;55.09;101719.16;5045485;28;20107;-81
2023/04/25 04:05:05;;;;;;;3.40;0.30;;;;;;;14.25;53.78;101724.22;5049548;28;20561;-80
2023/04/25 04:07:42;;;;;;;0.47;0.20;;;;;;;14.24;53.20;101726.78;5051097;27;20059;-80
2023/04/25 04:10:12;;;;;;;0.40;0.30;;;;;;;14.22;53.91;101733.66;5044421;28;20494;-85
2023/04/25 04:12:40;;;;;;;1.55;0.30;;;;;;;14.19;54.09;101738.78;5044302;28;20127;-80
2023/04/25 04:15:12;;;;;;;2.90;0.40;;;;;;;14.17;54.79;101743.03;5055710;28;20041;-81
2023/04/25 04:17:41;;;;;;;3.00;0.47;;;;;;;14.12;54.74;101737.69;5043867;28;20144;-84
2023/04/25 04:20:10;;;;;;;1.65;0.30;;;;;;;14.12;53.91;101747.22;5043944;28;20080;-82
2023/04/25 04:22:39;;;;;;;1.15;0.25;;;;;;;14.10;53.29;101748.91;5049946;28;20046;-82
2023/04/25 04:25:09;;;;;;;0.32;0.17;;;;;;;14.06;54.55;101753.13;5035518;28;20526;-83
2023/04/25 04:27:39;;;;;;;2.53;0.40;;;;;;;14.03;54.65;101753.91;5045093;28;20106;-84
2023/04/25 04:30:10;;;;;;;0.10;0.10;;;;;;;13.99;55.39;101757.25;5045365;28;20052;-81
2023/04/25 04:32:39;;;;;;;1.60;0.20;;;;;;;13.96;54.72;101761.47;5042712;28;20053;-83
2023/04/25 04:35:08;;;;;;;0.20;0.20;;;;;;;13.92;55.37;101770.91;5048719;28;20049;-84
2023/04/25 04:37:37;;;;;;;0.25;0.10;;;;;;;13.83;54.53;101763.69;5045147;28;20076;-84
2023/04/25 04:40:07;;;;;;;0.77;0.20;;;;;;;13.82;54.59;101780.13;5045131;28;20105;-82
2023/04/25 04:42:36;;;;;;;1.20;0.30;;;;;;;13.76;54.65;101773.84;5046703;28;20053;-82
2023/04/25 04:45:05;;;;;;;0.77;0.40;;;;;;;13.71;54.99;101772.81;5037719;28;20569;-81
2023/04/25 04:47:36;;;;;;;0.10;0.10;;;;;;;13.66;55.44;101775.25;5046067;28;20044;-81
2023/04/25 04:50:07;;;;;;;0.40;0.20;;;;;;;13.61;56.69;101769.91;5037878;28;20165;-84
2023/04/25 04:52:35;;;;;;;0.10;0.10;;;;;;;13.54;55.50;101770.53;5044395;28;20052;-82
2023/04/25 04:55:05;;;;;;;0.32;0.17;;;;;;;13.47;55.96;101775.47;5043019;28;20133;-83
2023/04/25 04:57:34;;;;;;;0.08;0.08;;;;;;;13.37;56.07;101774.28;5041406;28;20038;-84
2023/04/25 05:00:06;;;;;;;0.65;0.30;;;;;;;13.26;56.20;101776.44;5044955;28;20491;-82
2023/04/25 05:02:37;;;;;;;0.35;0.17;;;;;;;13.24;57.19;101782.44;5034980;28;20053;-82
2023/04/25 05:05:06;;;;;;;0.75;0.25;;;;;;;13.18;57.80;101784.00;5043805;28;20260;-81
2023/04/25 05:07:34;;;;;;;2.72;0.57;;;;;;;13.11;57.94;101787.22;5045583;28;20435;-81
2023/04/25 05:10:03;;;;;;;0.47;0.00;;;;;;;12.99;58.01;101786.78;5045831;28;20087;-85
2023/04/25 05:12:32;;;;;;;1.85;0.30;;;;;;;12.94;58.44;101777.91;5043949;28;20049;-81
2023/04/25 05:15:01;;;;;;;0.10;0.10;;;;;;;12.88;58.58;101775.13;5042865;28;20046;-82
2023/04/25 05:17:29;;;;;;;1.35;0.20;;;;;;;12.81;58.58;101780.91;5042619;28;20040;-83
2023/04/25 05:19:59;;;;;;;0.13;0.13;;;;;;;12.67;58.92;101776.09;5042101;28;20059;-83
2023/04/25 05:22:28;;;;;;;0.15;0.15;;;;;;;12.66;59.36;101776.91;5047867;28;20048;-82
2023/04/25 05:24:57;;;;;;;0.15;0.00;;;;;;;12.58;60.14;101781.81;5049696;28;20056;-81
2023/04/25 05:27:29;;;;;;;1.55;0.03;;;;;;;12.51;61.67;101794.53;5045646;28;20108;-84
2023/04/25 05:29:58;;;;;;;3.72;0.28;;;;;;;12.45;60.86;101794.28;5050882;28;20052;-81
2023/04/25 05:32:26;;;;;;;0.25;0.25;;;;;;;12.38;61.18;101800.06;5046068;28;20057;-81
2023/04/25 05:34:55;;;;;;;0.20;0.10;;;;;;;12.32;61.07;101805.88;5041217;28;20141;-82
2023/04/25 05:37:25;;;;;;;0.38;0.10;;;;;;;12.25;61.33;101806.47;5043116;28;20419;-82
2023/04/25 05:39:54;;;;;;;1.65;0.13;;;;;;;12.17;62.49;101816.56;5046242;28;20048;-82
2023/04/25 05:42:23;;;;;;;0.52;0.20;;;;;;;12.09;62.63;101813.63;5043670;28;20566;-81
2023/04/25 05:44:51;;;;;;;1.13;0.13;;;;;;;12.04;62.62;101824.66;5044132;28;20099;-80
2023/04/25 05:47:20;;;;;;;0.52;0.30;;;;;;;11.87;63.11;101801.53;5045179;28;20342;-81
2023/04/25 05:49:49;;;;;;;1.10;0.40;;;;;;;11.90;63.91;101817.19;5046371;28;20621;-81
2023/04/25 05:52:17;;;;;;;2.13;0.10;;;;;;;11.85;65.94;101816.09;5047478;28;20048;-80
2023/04/25 05:54:48;;;;;;;1.25;0.20;;;;;;;11.78;64.57;101820.97;5040166;28;20045;-80
2023/04/25 05:57:22;;;;;;;4.20;0.30;;;;;;;11.68;64.22;101822.28;5049192;28;20489;-82
2023/04/25 05:59:51;;;;;;;0.13;0.13;;;;;;;11.62;64.01;101819.44;5037900;28;20048;-80
2023/04/25 06:02:20;;;;;;;1.17;0.20;;;;;;;11.52;65.18;101805.19;5046479;28;20644;-81
2023/04/25 06:04:49;;;;;;;0.20;0.17;;;;;;;11.39;64.90;101795.16;5042747;28;20061;-81
2023/04/25 06:07:18;;;;;;;0.35;0.10;;;;;;;11.43;65.49;101803.13;5043723;28;20676;-80
2023/04/25 06:09:48;;;;;;;0.17;0.10;;;;;;;11.37;68.34;101802.84;5043673;28;20641;-80
2023/04/25 06:12:17;;;;;;;0.52;0.15;;;;;;;11.24;68.79;101800.53;5041500;28;20068;-81
2023/04/25 06:14:46;;;;;;;2.58;0.22;;;;;;;11.18;68.74;101802.84;5042861;28;20565;-80
2023/04/25 06:17:15;;;;;;;0.43;0.17;;;;;;;11.15;68.76;101807.91;5036998;28;20472;-80
2023/04/25 06:19:43;;;;;;;0.10;0.10;;;;;;;11.10;69.01;101811.19;5040898;28;20064;-81
2023/04/25 06:22:12;;;;;;;0.22;0.22;;;;;;;11.08;69.27;101809.34;5043949;28;20133;-80
2023/04/25 06:24:41;;;;;;;1.15;0.55;;;;;;;11.07;69.36;101823.13;5042177;28;21178;-80
2023/04/25 06:27:11;;;;;;;0.93;0.28;;;;;;;10.96;69.50;101817.47;5044381;28;20607;-80
2023/04/25 06:29:40;;;;;;;0.52;0.45;;;;;;;11.01;69.94;101839.25;5042242;28;20071;-81
2023/04/25 06:32:09;;;;;;;0.20;0.10;;;;;;;10.98;69.53;101844.31;5044737;28;20549;-81
2023/04/25 06:34:37;;;;;;;0.10;0.10;;;;;;;10.94;68.78;101841.50;5035898;28;20161;-79
2023/04/25 06:37:06;;;;;;;1.45;0.10;;;;;;;10.86;68.89;101841.19;5035871;28;20396;-79
2023/04/25 06:39:35;;;;;;;1.00;0.35;;;;;;;10.81;69.43;101840.06;5045605;28;20056;-79
2023/04/25 06:42:03;;;;;;;0.45;0.38;;;;;;;10.74;70.43;101835.41;5039093;28;20521;-79
2023/04/25 06:44:34;;;;;;;0.63;0.08;;;;;;;10.68;71.08;101829.16;5043786;28;20667;-80
2023/04/25 06:47:02;;;;;;;0.22;0.15;;;;;;;10.63;74.01;101828.06;5041124;28;20048;-80
2023/04/25 06:49:31;;;;;;;0.35;0.20;;;;;;;10.56;72.68;101823.41;5047054;28;20036;-80
2023/04/25 06:52:00;;;;;;;0.10;0.10;;;;;;;10.50;74.44;101833.47;5043415;28;20060;-79
2023/04/25 06:54:29;;;;;;;0.22;0.20;;;;;;;10.43;74.64;101845.22;5041100;28;20517;-79
2023/04/25 06:56:58;;;;;;;0.35;0.15;;;;;;;10.39;72.43;101835.53;5036729;28;20622;-79
2023/04/25 06:59:27;;;;;;;0.10;0.10;;;;;;;10.41;71.82;101839.09;5041809;28;21375;-81
2023/04/25 07:01:57;;;;;;;0.52;0.10;;;;;;;10.39;72.24;101837.25;5042054;28;20097;-79
2023/04/25 07:04:26;;;;;;;0.25;0.20;;;;;;;10.35;70.35;101835.31;5040152;28;20053;-80
2023/04/25 07:06:55;;;;;;;2.70;0.35;;;;;;;10.32;70.24;101851.59;5045609;28;20091;-80
2023/04/25 07:09:23;;;;;;;0.88;0.45;;;;;;;10.30;70.90;101855.81;5041033;28;20115;-81
2023/04/25 07:11:52;;;;;;;0.35;0.08;;;;;;;10.27;71.32;101841.00;5039544;28;20459;-80
2023/04/25 07:14:21;;;;;;;0.47;0.10;;;;;;;10.24;70.90;101851.19;5041140;28;20434;-80
2023/04/25 07:16:50;;;;;;;0.57;0.17;;;;;;;10.14;76.69;101833.44;5042408;28;20049;-80
2023/04/25 07:19:20;;;;;;;0.20;0.10;;;;;;;10.02;74.64;101838.03;5045270;28;20536;-78
2023/04/25 07:21:49;;;;;;;0.00;0.00;;;;;;;9.99;73.91;101849.13;5039314;28;20544;-80
2023/04/25 07:24:18;;;;;;;0.00;0.00;;;;;;;9.95;74.04;101844.59;5044427;28;20715;-79
2023/04/25 07:26:46;;;;;;;1.48;0.10;;;;;;;9.83;77.13;101844.88;5041578;28;20057;-79
2023/04/25 07:29:15;;;;;;;1.98;0.32;;;;;;;9.79;75.22;101840.38;5048254;28;20064;-80
2023/04/25 07:31:43;;;;;;;3.00;0.32;;;;;;;9.78;72.86;101837.69;5039923;28;20044;-79
2023/04/25 07:34:12;;;;;;;4.22;0.30;;;;;;;9.76;72.92;101850.56;5046623;28;20045;-81
2023/04/25 07:36:42;;;;;;;0.30;0.20;;;;;;;9.73;74.45;101850.38;5038710;28;20136;-80
2023/04/25 07:39:11;;;;;;;0.47;0.10;;;;;;;9.71;73.59;101848.53;5042536;28;20126;-79
2023/04/25 07:41:40;;;;;;;0.05;0.05;;;;;;;9.71;72.63;101853.69;5037860;28;20045;-80
2023/04/25 07:44:08;;;;;;;0.38;0.15;;;;;;;9.71;71.98;101852.03;5040567;28;20081;-78
2023/04/25 07:46:37;;;;;;;1.35;0.10;;;;;;;9.63;73.30;101853.31;5042171;28;20049;-77
2023/04/25 07:49:06;;;;;;;2.05;0.10;;;;;;;9.61;73.58;101860.09;5039714;28;20047;-80
2023/04/25 07:51:34;;;;;;;0.10;0.10;;;;;;;9.62;72.93;101856.69;5045974;28;20487;-80
2023/04/25 07:54:05;;;;;;;0.63;0.43;;;;;;;9.63;74.43;101863.66;5039706;28;20055;-80
2023/04/25 07:56:34;;;;;;;0.82;0.10;;;;;;;9.57;74.12;101843.53;5045446;28;20048;-79
2023/04/25 07:59:02;;;;;;;0.32;0.15;;;;;;;9.57;74.75;101853.88;5042966;28;20595;-80
2023/04/25 08:01:38;;;;;;;0.85;0.10;;;;;;;9.56;77.08;101866.75;5039866;28;20060;-78
2023/04/25 08:04:06;;;;;;;0.13;0.10;;;;;;;9.53;76.67;101853.66;5042250;28;20128;-80
2023/04/25 08:06:35;;;;;;;0.32;0.20;;;;;;;9.52;74.54;101854.47;5037441;28;20059;-81
2023/04/25 08:09:06;;;;;;;0.00;0.00;;;;;;;9.54;73.84;101858.91;5043381;28;20045;-80
2023/04/25 08:11:34;;;;;;;0.30;0.08;;;;;;;9.57;72.02;101864.22;5040419;28;20619;-79
2023/04/25 08:14:03;;;;;;;0.88;0.30;;;;;;;9.62;72.57;101860.19;5042907;28;20044;-79
2023/04/25 08:16:32;;;;;;;0.00;0.00;;;;;;;9.67;71.64;101857.84;5039332;28;20414;-79
2023/04/25 08:19:02;;;;;;;0.10;0.10;;;;;;;9.69;71.08;101848.47;5046176;28;20099;-81
2023/04/25 08:21:31;;;;;;;0.10;0.08;;;;;;;9.73;73.63;101846.91;5046879;28;20147;-78
2023/04/25 08:24:00;;;;;;;0.10;0.08;;;;;;;9.71;71.56;101844.28;5037552;28;20134;-79
2023/04/25 08:26:31;;;;;;;0.00;0.00;;;;;;;9.70;73.60;101850.25;5042865;28;20480;-79
2023/04/25 08:28:59;;;;;;;0.45;0.20;;;;;;;9.70;72.99;101855.41;5032264;28;20049;-80
2023/04/25 08:31:28;;;;;;;0.03;0.03;;;;;;;9.69;73.79;101863.06;5042270;28;20119;-79
2023/04/25 08:33:57;;;;;;;3.30;0.15;;;;;;;9.65;74.54;101862.03;5042048;28;20052;-78
2023/04/25 08:36:25;;;;;;;0.10;0.10;;;;;;;9.63;73.01;101861.06;5030497;28;20056;-79
2023/04/25 08:38:54;;;;;;;0.20;0.10;;;;;;;9.65;72.47;101862.03;5033962;28;20454;-80
2023/04/25 08:41:24;;;;;;;0.68;0.20;;;;;;;9.68;72.44;101864.78;5035212;28;20059;-80
2023/04/25 08:43:59;;;;;;;0.00;0.00;;;;;;;9.64;72.07;101853.41;5046399;28;20656;-77
2023/04/25 08:46:28;;;;;;;0.40;0.05;;;;;;;9.63;74.63;101866.25;5047483;28;20048;-79
2023/04/25 08:49:01;;;;;;;0.30;0.10;;;;;;;9.57;72.72;101853.00;5042325;28;20613;-80
2023/04/25 08:51:34;;;;;;;0.25;0.25;;;;;;;9.58;73.51;101849.63;5046740;28;20045;-80
2023/04/25 08:54:11;;;;;;;0.00;0.00;;;;;;;9.61;72.53;101849.78;5040042;28;20132;-79
2023/04/25 08:56:42;;;;;;;0.00;0.00;;;;;;;9.63;72.86;101850.75;5047375;28;20700;-80
2023/04/25 08:59:13;;;;;;;0.65;0.10;;;;;;;9.61;74.84;101845.47;5036952;28;20045;-79
2023/04/25 09:01:42;;;;;;;0.30;0.10;;;;;;;9.58;76.53;101844.47;5037722;28;20086;-80
2023/04/25 09:04:10;;;;;;;0.22;0.20;;;;;;;9.54;76.04;101847.69;5046224;28;20458;-79
2023/04/25 09:06:39;;;;;;;1.88;0.10;;;;;;;9.50;78.02;101827.66;5037888;28;20061;-78
2023/04/25 09:09:10;;;;;;;0.10;0.00;;;;;;;9.47;79.05;101830.09;5038229;28;20041;-79
2023/04/25 09:11:40;;;;;;;1.17;0.10;;;;;;;9.49;78.16;101831.06;5039353;28;20062;-79
2023/04/25 09:14:18;;;;;;;0.35;0.13;;;;;;;9.49;77.79;101826.78;5038241;28;20103;-79
2023/04/25 09:17:03;;;;;;;2.33;0.47;;;;;;;9.48;76.38;101821.53;5036440;28;20045;-79
2023/04/25 09:19:34;;;;;;;0.00;0.00;;;;;;;9.46;76.57;101834.41;5041199;28;20051;-78
2023/04/25 09:22:04;;;;;;;0.60;0.20;;;;;;;9.43;76.08;101835.09;5037977;28;20060;-79
2023/04/25 09:24:38;;;;;;;2.10;0.10;;;;;;;9.32;75.63;101831.09;5044896;28;20487;-79
2023/04/25 09:27:08;;;;;;;0.05;0.03;;;;;;;9.42;75.58;101848.84;5046835;28;20725;-80
2023/04/25 09:29:40;;;;;;;0.32;0.00;;;;;;;9.44;74.99;101857.56;5037027;28;20146;-80
2023/04/25 09:32:20;;;;;;;0.10;0.10;;;;;;;9.43;75.39;101858.34;5041432;28;20071;-80
2023/04/25 09:34:50;;;;;;;0.00;0.00;;;;;;;9.41;75.67;101861.66;5037270;28;20392;-80
2023/04/25 09:37:23;;;;;;;1.55;0.10;;;;;;;9.39;76.56;101842.59;5035513;28;20057;-79
2023/04/25 09:39:52;;;;;;;;;;;;;;;9.33;79.53;101842.31;5046645;28;20041;-80
2023/04/25 09:42:23;;;;;;;1.02;0.13;;;;;;;9.28;78.83;101848.91;5048333;28;19928;-80
2023/04/25 09:44:55;;;;;;;0.00;0.00;;;;;;;9.26;78.67;101845.38;5037633;28;20063;-79
2023/04/25 09:47:26;;;;;;;2.80;0.10;;;;;;;9.26;77.74;101837.63;5043965;28;20057;-79
2023/04/25 09:49:56;;;;;;;0.10;0.00;;;;;;;9.26;79.08;101838.53;5039592;28;20426;-79
2023/04/25 09:52:26;;;;;;;0.00;0.00;;;;;;;9.25;79.39;101836.72;5035519;28;20137;-79
2023/04/25 09:54:54;;;;;;;0.20;0.00;;;;;;;9.25;78.54;101839.31;5040872;28;20037;-79
2023/04/25 09:57:24;;;;;;;0.00;0.00;;;;;;;9.24;78.06;101827.22;5043057;28;20099;-79
2023/04/25 09:59:55;;;;;;;0.03;0.00;;;;;;;9.19;81.84;101803.75;5036418;28;20061;-79
2023/04/25 10:02:25;;;;;;;0.00;0.00;;;;;;;9.14;81.37;101806.88;5043154;28;20050;-80
2023/04/25 10:04:56;;;;;;;2.28;0.10;;;;;;;9.04;80.91;101799.47;5037294;28;20045;-79
2023/04/25 10:07:28;;;;;;;0.10;0.08;;;;;;;8.97;80.13;101806.88;5040719;28;20062;-79
2023/04/25 10:10:01;;;;;;;1.27;0.10;;;;;;;8.88;80.79;101806.41;5035180;28;20595;-79
2023/04/25 10:12:30;;;;;;;0.03;0.00;;;;;;;8.87;80.68;101809.81;5040533;28;20164;-79
2023/04/25 10:15:02;;;;;;;0.35;0.00;;;;;;;8.90;80.36;101817.69;5041386;28;20044;-80
2023/04/25 10:17:31;;;;;;;0.03;0.00;;;;;;;8.93;80.44;101816.97;5039660;28;20045;-80
2023/04/25 10:19:59;;;;;;;0.00;0.00;;;;;;;8.92;81.12;101823.81;5048004;28;20113;-79
2023/04/25 10:22:36;;;;;;;0.00;0.00;;;;;;;8.89;81.50;101834.00;5035238;28;20718;-80
2023/04/25 10:25:06;;;;;;;0.00;0.00;;;;;;;8.90;80.06;101837.47;5036445;28;20049;-80
2023/04/25 10:27:35;;;;;;;0.00;0.00;;;;;;;8.90;80.20;101838.34;5039318;28;20057;-80
2023/04/25 10:30:09;;;;;;;0.10;0.10;;;;;;;8.88;79.42;101834.78;5038770;28;20144;-80
2023/04/25 10:32:38;;;;;;;0.30;0.10;;;;;;;8.84;80.68;101840.59;5039686;28;20782;-80
2023/04/25 10:35:15;;;;;;;0.00;0.00;;;;;;;8.74;79.95;101817.69;5042614;28;20072;-77
2023/04/25 10:38:00;;;;;;;1.85;0.10;;;;;;;8.80;80.10;101836.09;5038727;28;20084;-79
2023/04/25 10:40:29;;;;;;;0.20;0.20;;;;;;;8.79;80.61;101847.19;5040906;28;20045;-79
2023/04/25 10:43:18;;;;;;;0.00;0.00;;;;;;;8.68;80.19;101833.75;5043149;28;21210;-79
2023/04/25 10:45:57;;;;;;;0.00;0.00;;;;;;;8.64;80.02;101847.28;5041999;28;20064;-80
2023/04/25 10:48:30;;;;;;;0.00;0.00;;;;;;;8.62;79.68;101854.03;5038854;28;20143;-79
2023/04/25 10:51:13;;;;;;;1.80;0.00;;;;;;;8.62;80.55;101853.16;5042325;28;20487;-80
2023/04/25 10:53:42;;;;;;;0.03;0.03;;;;;;;8.62;80.88;101858.31;5039342;28;20071;-80
2023/04/25 10:56:19;;;;;;;0.03;0.03;;;;;;;8.57;80.39;101846.03;5045523;28;20049;-80
2023/04/25 10:58:48;;;;;;;1.05;0.03;;;;;;;8.52;80.14;101844.91;5043014;28;20499;-79
2023/04/25 11:01:22;;;;;;;0.00;0.00;;;;;;;8.51;81.82;101853.44;5045341;28;20111;-78
2023/04/25 11:03:58;;;;;;;0.00;0.00;;;;;;;8.44;81.57;101853.91;5049992;28;20041;-79
2023/04/25 11:06:37;;;;;;;0.10;0.00;;;;;;;8.42;82.43;101854.63;5044602;28;20055;-79
2023/04/25 11:09:14;;;;;;;0.00;0.00;;;;;;;8.41;81.73;101869.22;5033123;28;20049;-79
2023/04/25 11:11:42;;;;;;;1.27;0.10;;;;;;;8.41;81.37;101873.47;5037473;28;20073;-79
2023/04/25 11:14:11;;;;;;;1.08;0.20;;;;;;;8.39;82.13;101870.78;5041382;28;20045;-80
2023/04/25 11:16:41;;;;;;;0.00;0.00;;;;;;;8.36;81.13;101873.16;5041593;28;20048;-80
2023/04/25 11:19:10;;;;;;;0.00;0.00;;;;;;;8.32;81.66;101871.25;5054089;28;20041;-79
2023/04/25 11:21:39;;;;;;;0.00;0.00;;;;;;;8.29;82.55;101873.63;5049976;28;20057;-80
2023/04/25 11:24:08;;;;;;;0.10;0.00;;;;;;;8.21;83.35;101870.63;5041559;28;20677;-78
2023/04/25 11:26:38;;;;;;;0.00;0.00;;;;;;;8.10;84.93;101864.84;5043341;28;20691;-78
2023/04/25 11:29:06;;;;;;;0.15;0.00;;;;;;;8.05;84.72;101879.16;5041927;28;20080;-80
2023/04/25 11:31:35;;;;;;;0.00;0.00;;;;;;;8.03;85.61;101875.59;5033120;28;20507;-78
2023/04/25 11:34:05;;;;;;;0.40;0.20;;;;;;;7.98;88.41;101877.03;5044513;28;20057;-77
2023/04/25 11:36:34;;;;;;;0.10;0.00;;;;;;;7.94;90.46;101870.81;5044572;28;20083;-80
2023/04/25 11:39:03;;;;;;;0.10;0.00;;;;;;;7.93;89.48;101873.31;5035888;28;20040;-79
2023/04/25 11:41:33;;;;;;;0.22;0.10;;;;;;;7.92;87.73;101868.94;5037576;28;20475;-81